sensor_id;sensor_type;location;lat;lon;timestamp;pressure;altitude;pressure_sealevel;temperature;humidity
73600;BME280;61877;48.246;9.220;2023-04-03T00:00:37;94625.50;;;3.67;86.33
73600;BME280;61877;48.246;9.220;2023-04-03T00:03:02;94621.88;;;3.58;86.08
73600;BME280;61877;48.246;9.220;2023-04-03T00:05:28;94628.06;;;3.49;85.43
73600;BME280;61877;48.246;9.220;2023-04-03T00:07:54;94621.03;;;3.34;84.73
73600;BME280;61877;48.246;9.220;2023-04-03T00:10:20;94618.88;;;3.41;85.58
73600;BME280;61877;48.246;9.220;2023-04-03T00:12:45;94618.44;;;3.29;83.83
73600;BME280;61877;48.246;9.220;2023-04-03T00:15:11;94617.19;;;3.17;83.94
73600;BME280;61877;48.246;9.220;2023-04-03T00:17:37;94617.91;;;3.27;84.41
73600;BME280;61877;48.246;9.220;2023-04-03T00:20:03;94616.88;;;3.28;84.48
73600;BME280;61877;48.246;9.220;2023-04-03T00:22:28;94618.69;;;3.33;84.25
73600;BME280;61877;48.246;9.220;2023-04-03T00:24:55;94611.50;;;3.33;84.75
73600;BME280;61877;48.246;9.220;2023-04-03T00:27:21;94616.25;;;3.36;86.21
73600;BME280;61877;48.246;9.220;2023-04-03T00:29:46;94620.47;;;3.37;83.77
73600;BME280;61877;48.246;9.220;2023-04-03T00:32:12;94619.41;;;3.38;82.46
73600;BME280;61877;48.246;9.220;2023-04-03T00:34:37;94623.19;;;3.32;83.66
73600;BME280;61877;48.246;9.220;2023-04-03T00:37:03;94620.56;;;3.27;83.78
73600;BME280;61877;48.246;9.220;2023-04-03T00:39:28;94622.66;;;3.30;84.34
73600;BME280;61877;48.246;9.220;2023-04-03T00:41:55;94623.47;;;3.31;84.49
73600;BME280;61877;48.246;9.220;2023-04-03T00:44:22;94621.94;;;3.25;82.00
73600;BME280;61877;48.246;9.220;2023-04-03T00:46:47;94625.91;;;3.22;82.69
73600;BME280;61877;48.246;9.220;2023-04-03T00:49:12;94630.78;;;3.10;82.67
73600;BME280;61877;48.246;9.220;2023-04-03T00:51:38;94624.91;;;3.18;83.11
73600;BME280;61877;48.246;9.220;2023-04-03T00:54:05;94619.09;;;3.16;83.11
73600;BME280;61877;48.246;9.220;2023-04-03T00:56:33;94625.47;;;3.10;82.12
73600;BME280;61877;48.246;9.220;2023-04-03T00:59:04;94621.78;;;3.11;81.74
73600;BME280;61877;48.246;9.220;2023-04-03T01:01:31;94629.72;;;3.11;82.78
73600;BME280;61877;48.246;9.220;2023-04-03T01:03:58;94616.59;;;2.96;81.06
73600;BME280;61877;48.246;9.220;2023-04-03T01:06:27;94619.97;;;3.07;81.73
73600;BME280;61877;48.246;9.220;2023-04-03T01:08:54;94608.84;;;3.05;82.24
73600;BME280;61877;48.246;9.220;2023-04-03T01:11:20;94611.72;;;3.08;81.27
73600;BME280;61877;48.246;9.220;2023-04-03T01:13:46;94613.31;;;3.09;82.45
73600;BME280;61877;48.246;9.220;2023-04-03T01:16:13;94608.53;;;3.11;80.42
73600;BME280;61877;48.246;9.220;2023-04-03T01:18:39;94618.03;;;3.12;81.70
73600;BME280;61877;48.246;9.220;2023-04-03T01:21:27;94612.91;;;2.92;79.64
73600;BME280;61877;48.246;9.220;2023-04-03T01:24:14;94609.66;;;3.00;82.96
73600;BME280;61877;48.246;9.220;2023-04-03T01:26:42;94613.63;;;3.03;82.59
73600;BME280;61877;48.246;9.220;2023-04-03T01:29:08;94612.81;;;3.02;81.70
73600;BME280;61877;48.246;9.220;2023-04-03T01:31:46;94610.25;;;2.92;80.71
73600;BME280;61877;48.246;9.220;2023-04-03T01:34:11;94610.28;;;2.87;81.53
73600;BME280;61877;48.246;9.220;2023-04-03T01:36:37;94613.69;;;2.93;82.63
73600;BME280;61877;48.246;9.220;2023-04-03T01:39:02;94623.03;;;2.85;81.42
73600;BME280;61877;48.246;9.220;2023-04-03T01:41:28;94621.44;;;2.84;81.29
73600;BME280;61877;48.246;9.220;2023-04-03T01:43:54;94620.88;;;2.87;81.23
73600;BME280;61877;48.246;9.220;2023-04-03T01:46:19;94609.75;;;2.90;82.86
73600;BME280;61877;48.246;9.220;2023-04-03T01:48:47;94617.19;;;2.88;81.76
73600;BME280;61877;48.246;9.220;2023-04-03T01:51:12;94614.81;;;2.87;81.30
73600;BME280;61877;48.246;9.220;2023-04-03T01:53:38;94616.63;;;2.91;81.79
73600;BME280;61877;48.246;9.220;2023-04-03T01:56:04;94618.28;;;2.82;81.26
73600;BME280;61877;48.246;9.220;2023-04-03T01:58:30;94614.66;;;2.73;80.57
73600;BME280;61877;48.246;9.220;2023-04-03T02:00:55;94618.13;;;2.69;80.03
73600;BME280;61877;48.246;9.220;2023-04-03T02:03:21;94610.63;;;2.76;81.98
73600;BME280;61877;48.246;9.220;2023-04-03T02:05:48;94615.66;;;2.77;80.18
73600;BME280;61877;48.246;9.220;2023-04-03T02:08:14;94609.91;;;2.70;82.39
73600;BME280;61877;48.246;9.220;2023-04-03T02:10:39;94614.09;;;2.76;82.43
73600;BME280;61877;48.246;9.220;2023-04-03T02:13:05;94611.97;;;2.78;82.47
73600;BME280;61877;48.246;9.220;2023-04-03T02:15:30;94612.72;;;2.79;81.27
73600;BME280;61877;48.246;9.220;2023-04-03T02:17:56;94608.72;;;2.86;82.46
73600;BME280;61877;48.246;9.220;2023-04-03T02:20:21;94611.16;;;2.78;82.35
73600;BME280;61877;48.246;9.220;2023-04-03T02:22:48;94605.28;;;2.47;80.31
73600;BME280;61877;48.246;9.220;2023-04-03T02:25:14;94606.72;;;2.68;81.20
73600;BME280;61877;48.246;9.220;2023-04-03T02:27:39;94611.50;;;2.66;81.23
73600;BME280;61877;48.246;9.220;2023-04-03T02:30:06;94607.81;;;2.62;80.13
73600;BME280;61877;48.246;9.220;2023-04-03T02:32:31;94606.72;;;2.68;81.59
73600;BME280;61877;48.246;9.220;2023-04-03T02:34:57;94612.09;;;2.58;80.98
73600;BME280;61877;48.246;9.220;2023-04-03T02:37:22;94612.09;;;2.58;80.51
73600;BME280;61877;48.246;9.220;2023-04-03T02:39:49;94611.00;;;2.59;81.42
73600;BME280;61877;48.246;9.220;2023-04-03T02:42:15;94612.66;;;2.55;79.62
73600;BME280;61877;48.246;9.220;2023-04-03T02:44:40;94610.53;;;2.57;80.20
73600;BME280;61877;48.246;9.220;2023-04-03T02:47:06;94615.31;;;2.50;80.08
73600;BME280;61877;48.246;9.220;2023-04-03T02:49:31;94611.06;;;2.49;80.45
73600;BME280;61877;48.246;9.220;2023-04-03T02:51:57;94610.09;;;2.40;80.79
73600;BME280;61877;48.246;9.220;2023-04-03T02:54:22;94618.56;;;2.37;80.47
73600;BME280;61877;48.246;9.220;2023-04-03T02:56:49;94610.91;;;2.35;79.32
73600;BME280;61877;48.246;9.220;2023-04-03T02:59:15;94626.25;;;2.38;80.59
73600;BME280;61877;48.246;9.220;2023-04-03T03:01:40;94620.66;;;2.45;81.33
73600;BME280;61877;48.246;9.220;2023-04-03T03:04:05;94622.78;;;2.38;80.86
73600;BME280;61877;48.246;9.220;2023-04-03T03:06:31;94622.03;;;2.32;81.01
73600;BME280;61877;48.246;9.220;2023-04-03T03:08:56;94629.38;;;2.40;81.58
73600;BME280;61877;48.246;9.220;2023-04-03T03:11:22;94631.53;;;2.38;81.51
73600;BME280;61877;48.246;9.220;2023-04-03T03:13:49;94620.19;;;2.28;80.93
73600;BME280;61877;48.246;9.220;2023-04-03T03:16:14;94625.19;;;2.34;81.50
73600;BME280;61877;48.246;9.220;2023-04-03T03:18:40;94629.38;;;2.45;81.81
73600;BME280;61877;48.246;9.220;2023-04-03T03:21:05;94630.72;;;2.43;80.47
73600;BME280;61877;48.246;9.220;2023-04-03T03:23:31;94628.03;;;2.48;79.54
73600;BME280;61877;48.246;9.220;2023-04-03T03:25:58;94624.91;;;2.36;79.83
73600;BME280;61877;48.246;9.220;2023-04-03T03:28:24;94627.34;;;2.27;78.48
73600;BME280;61877;48.246;9.220;2023-04-03T03:30:51;94625.00;;;2.21;78.06
73600;BME280;61877;48.246;9.220;2023-04-03T03:33:17;94625.78;;;2.26;79.14
73600;BME280;61877;48.246;9.220;2023-04-03T03:35:42;94621.78;;;2.29;78.62
73600;BME280;61877;48.246;9.220;2023-04-03T03:38:08;94631.91;;;2.17;76.29
73600;BME280;61877;48.246;9.220;2023-04-03T03:40:33;94625.34;;;1.99;75.77
73600;BME280;61877;48.246;9.220;2023-04-03T03:42:58;94615.00;;;2.08;74.51
73600;BME280;61877;48.246;9.220;2023-04-03T03:45:24;94614.22;;;2.02;75.00
73600;BME280;61877;48.246;9.220;2023-04-03T03:47:51;94624.56;;;2.04;74.37
73600;BME280;61877;48.246;9.220;2023-04-03T03:50:16;94631.44;;;2.00;73.86
73600;BME280;61877;48.246;9.220;2023-04-03T03:52:42;94620.06;;;1.99;71.00
73600;BME280;61877;48.246;9.220;2023-04-03T03:55:07;94628.31;;;1.88;68.24
73600;BME280;61877;48.246;9.220;2023-04-03T03:57:33;94623.03;;;1.78;70.05
73600;BME280;61877;48.246;9.220;2023-04-03T03:59:58;94624.38;;;1.85;71.53
73600;BME280;61877;48.246;9.220;2023-04-03T04:02:24;94623.81;;;1.88;69.70
73600;BME280;61877;48.246;9.220;2023-04-03T04:04:50;94624.63;;;1.89;69.94
73600;BME280;61877;48.246;9.220;2023-04-03T04:07:16;94620.63;;;1.86;70.60
73600;BME280;61877;48.246;9.220;2023-04-03T04:09:41;94615.13;;;1.78;71.16
73600;BME280;61877;48.246;9.220;2023-04-03T04:12:07;94618.28;;;1.85;71.39
73600;BME280;61877;48.246;9.220;2023-04-03T04:14:32;94617.19;;;1.86;71.05
73600;BME280;61877;48.246;9.220;2023-04-03T04:16:58;94623.56;;;1.80;69.66
73600;BME280;61877;48.246;9.220;2023-04-03T04:19:23;94618.31;;;1.75;69.44
73600;BME280;61877;48.246;9.220;2023-04-03T04:21:50;94624.66;;;1.79;70.83
73600;BME280;61877;48.246;9.220;2023-04-03T04:24:15;94631.50;;;1.80;72.38
73600;BME280;61877;48.246;9.220;2023-04-03T04:26:41;94633.44;;;1.64;70.32
73600;BME280;61877;48.246;9.220;2023-04-03T04:29:08;94620.97;;;1.70;68.28
73600;BME280;61877;48.246;9.220;2023-04-03T04:31:34;94626.28;;;1.60;69.51
73600;BME280;61877;48.246;9.220;2023-04-03T04:33:59;94622.06;;;1.54;70.03
73600;BME280;61877;48.246;9.220;2023-04-03T04:36:24;94620.97;;;1.70;71.38
73600;BME280;61877;48.246;9.220;2023-04-03T04:38:51;94621.22;;;1.73;71.07
73600;BME280;61877;48.246;9.220;2023-04-03T04:41:17;94626.78;;;1.72;69.88
73600;BME280;61877;48.246;9.220;2023-04-03T04:43:42;94621.22;;;1.73;70.46
73600;BME280;61877;48.246;9.220;2023-04-03T04:46:09;94627.31;;;1.74;69.84
73600;BME280;61877;48.246;9.220;2023-04-03T04:48:35;94629.94;;;1.79;70.22
73600;BME280;61877;48.246;9.220;2023-04-03T04:51:00;94628.84;;;1.85;71.64
73600;BME280;61877;48.246;9.220;2023-04-03T04:53:26;94628.84;;;1.85;69.70
73600;BME280;61877;48.246;9.220;2023-04-03T04:55:53;94624.13;;;1.72;71.46
73600;BME280;61877;48.246;9.220;2023-04-03T04:58:18;94626.78;;;1.72;69.58
73600;BME280;61877;48.246;9.220;2023-04-03T05:00:44;94636.56;;;1.71;71.22
73600;BME280;61877;48.246;9.220;2023-04-03T05:03:09;94634.72;;;1.62;70.18
73600;BME280;61877;48.246;9.220;2023-04-03T05:05:35;94636.31;;;1.58;70.32
73600;BME280;61877;48.246;9.220;2023-04-03T05:08:00;94633.66;;;1.68;70.30
73600;BME280;61877;48.246;9.220;2023-04-03T05:10:26;94641.84;;;1.66;71.02
73600;BME280;61877;48.246;9.220;2023-04-03T05:12:52;94638.66;;;1.74;72.18
73600;BME280;61877;48.246;9.220;2023-04-03T05:15:18;94641.53;;;1.83;72.99
73600;BME280;61877;48.246;9.220;2023-04-03T05:17:43;94644.50;;;1.61;69.48
73600;BME280;61877;48.246;9.220;2023-04-03T05:20:10;94644.22;;;1.68;69.69
73600;BME280;61877;48.246;9.220;2023-04-03T05:22:35;94645.31;;;1.67;68.68
73600;BME280;61877;48.246;9.220;2023-04-03T05:25:00;94651.88;;;1.69;69.83
73600;BME280;61877;48.246;9.220;2023-04-03T05:27:26;94650.28;;;1.78;68.63
73600;BME280;61877;48.246;9.220;2023-04-03T05:29:54;94648.19;;;1.75;68.17
73600;BME280;61877;48.246;9.220;2023-04-03T05:32:19;94654.53;;;1.69;67.05
73600;BME280;61877;48.246;9.220;2023-04-03T05:34:44;94654.81;;;1.68;66.75
73600;BME280;61877;48.246;9.220;2023-04-03T05:37:10;94649.81;;;1.56;66.10
73600;BME280;61877;48.246;9.220;2023-04-03T05:39:35;94666.19;;;1.58;66.46
73600;BME280;61877;48.246;9.220;2023-04-03T05:42:01;94661.97;;;1.57;67.74
73600;BME280;61877;48.246;9.220;2023-04-03T05:44:26;94667.28;;;1.57;66.91
73600;BME280;61877;48.246;9.220;2023-04-03T05:46:53;94658.25;;;1.63;66.59
73600;BME280;61877;48.246;9.220;2023-04-03T05:49:19;94660.63;;;1.75;68.22
73600;BME280;61877;48.246;9.220;2023-04-03T05:51:44;94672.75;;;1.86;68.25
73600;BME280;61877;48.246;9.220;2023-04-03T05:54:13;94664.84;;;1.81;67.97
73600;BME280;61877;48.246;9.220;2023-04-03T05:56:41;94648.19;;;1.80;66.24
73600;BME280;61877;48.246;9.220;2023-04-03T05:59:06;94659.47;;;2.01;66.14
73600;BME280;61877;48.246;9.220;2023-04-03T06:04:31;94655.75;;;2.12;65.57
73600;BME280;61877;48.246;9.220;2023-04-03T06:06:59;94652.50;;;2.25;63.41
73600;BME280;61877;48.246;9.220;2023-04-03T06:09:27;94655.91;;;2.35;64.84
73600;BME280;61877;48.246;9.220;2023-04-03T06:12:40;94654.78;;;2.51;65.25
73600;BME280;61877;48.246;9.220;2023-04-03T06:15:09;94656.63;;;2.51;64.19
73600;BME280;61877;48.246;9.220;2023-04-03T06:17:42;94656.59;;;2.56;61.99
73600;BME280;61877;48.246;9.220;2023-04-03T06:20:11;94656.88;;;2.54;63.45
73600;BME280;61877;48.246;9.220;2023-04-03T06:22:36;94659.13;;;2.76;64.59
73600;BME280;61877;48.246;9.220;2023-04-03T06:25:12;94656.97;;;2.83;64.53
73600;BME280;61877;48.246;9.220;2023-04-03T06:27:38;94663.81;;;2.89;64.28
73600;BME280;61877;48.246;9.220;2023-04-03T06:30:05;94661.09;;;2.99;62.61
73600;BME280;61877;48.246;9.220;2023-04-03T06:32:30;94668.31;;;2.89;62.64
73600;BME280;61877;48.246;9.220;2023-04-03T06:34:55;94668.69;;;3.11;62.58
73600;BME280;61877;48.246;9.220;2023-04-03T06:37:23;94660.50;;;3.07;62.97
73600;BME280;61877;48.246;9.220;2023-04-03T06:39:48;94660.69;;;3.16;61.78
73600;BME280;61877;48.246;9.220;2023-04-03T06:42:14;94663.03;;;3.22;61.81
73600;BME280;61877;48.246;9.220;2023-04-03T06:44:39;94665.59;;;3.32;62.62
73600;BME280;61877;48.246;9.220;2023-04-03T06:47:04;94664.31;;;3.58;62.74
73600;BME280;61877;48.246;9.220;2023-04-03T06:49:30;94666.00;;;3.49;61.95
73600;BME280;61877;48.246;9.220;2023-04-03T06:51:56;94656.53;;;3.67;59.61
73600;BME280;61877;48.246;9.220;2023-04-03T06:54:23;94664.22;;;3.68;60.26
73600;BME280;61877;48.246;9.220;2023-04-03T06:56:48;94662.50;;;3.82;60.11
73600;BME280;61877;48.246;9.220;2023-04-03T06:59:14;94664.34;;;3.82;61.00
73600;BME280;61877;48.246;9.220;2023-04-03T07:01:39;94661.97;;;3.80;62.92
73600;BME280;61877;48.246;9.220;2023-04-03T07:04:05;94673.72;;;3.74;60.04
73600;BME280;61877;48.246;9.220;2023-04-03T07:06:30;94671.50;;;3.58;60.89
73600;BME280;61877;48.246;9.220;2023-04-03T07:08:56;94665.44;;;3.19;60.51
73600;BME280;61877;48.246;9.220;2023-04-03T07:11:23;94671.09;;;3.41;61.36
73600;BME280;61877;48.246;9.220;2023-04-03T07:13:49;94667.72;;;3.30;62.07
73600;BME280;61877;48.246;9.220;2023-04-03T07:16:14;94674.34;;;2.99;62.69
73600;BME280;61877;48.246;9.220;2023-04-03T07:18:39;94681.44;;;3.42;63.04
73600;BME280;61877;48.246;9.220;2023-04-03T07:21:05;94679.06;;;3.41;62.26
73600;BME280;61877;48.246;9.220;2023-04-03T07:23:30;94687.44;;;3.81;64.38
73600;BME280;61877;48.246;9.220;2023-04-03T07:25:56;94684.44;;;3.88;62.03
73600;BME280;61877;48.246;9.220;2023-04-03T07:28:23;94688.03;;;3.73;61.89
73600;BME280;61877;48.246;9.220;2023-04-03T07:30:50;94687.66;;;3.85;62.01
73600;BME280;61877;48.246;9.220;2023-04-03T07:33:20;94684.09;;;3.71;60.25
73600;BME280;61877;48.246;9.220;2023-04-03T07:35:46;94686.16;;;3.79;60.89
73600;BME280;61877;48.246;9.220;2023-04-03T07:38:12;94679.72;;;4.09;60.89
73600;BME280;61877;48.246;9.220;2023-04-03T07:40:38;94692.94;;;4.14;60.76
73600;BME280;61877;48.246;9.220;2023-04-03T07:43:05;94683.97;;;4.33;62.38
73600;BME280;61877;48.246;9.220;2023-04-03T07:45:34;94694.19;;;4.45;61.61
73600;BME280;61877;48.246;9.220;2023-04-03T07:47:59;94699.50;;;3.97;60.24
73600;BME280;61877;48.246;9.220;2023-04-03T07:50:25;94695.53;;;3.95;61.59
73600;BME280;61877;48.246;9.220;2023-04-03T07:52:50;94704.44;;;3.80;60.99
73600;BME280;61877;48.246;9.220;2023-04-03T07:55:16;94700.31;;;3.69;61.32
73600;BME280;61877;48.246;9.220;2023-04-03T07:57:42;94711.91;;;3.73;61.69
73600;BME280;61877;48.246;9.220;2023-04-03T08:00:08;94697.56;;;4.03;62.06
73600;BME280;61877;48.246;9.220;2023-04-03T08:02:35;94703.56;;;4.14;61.36
73600;BME280;61877;48.246;9.220;2023-04-03T08:05:00;94707.97;;;4.23;59.80
73600;BME280;61877;48.246;9.220;2023-04-03T08:07:26;94705.31;;;4.23;59.75
73600;BME280;61877;48.246;9.220;2023-04-03T08:09:51;94707.50;;;3.92;59.61
73600;BME280;61877;48.246;9.220;2023-04-03T08:12:17;94707.69;;;3.72;60.87
73600;BME280;61877;48.246;9.220;2023-04-03T08:14:42;94711.88;;;3.78;61.66
73600;BME280;61877;48.246;9.220;2023-04-03T08:17:08;94718.13;;;3.92;60.83
73600;BME280;61877;48.246;9.220;2023-04-03T08:19:35;94709.72;;;4.09;61.50
73600;BME280;61877;48.246;9.220;2023-04-03T08:22:01;94717.72;;;4.33;62.97
73600;BME280;61877;48.246;9.220;2023-04-03T08:24:26;94710.91;;;4.22;61.24
73600;BME280;61877;48.246;9.220;2023-04-03T08:26:54;94721.94;;;4.34;60.56
73600;BME280;61877;48.246;9.220;2023-04-03T08:29:19;94720.53;;;4.18;61.16
73600;BME280;61877;48.246;9.220;2023-04-03T08:31:44;94720.88;;;4.11;61.60
73600;BME280;61877;48.246;9.220;2023-04-03T08:34:10;94721.03;;;4.67;62.06
73600;BME280;61877;48.246;9.220;2023-04-03T08:36:37;94726.91;;;4.40;60.66
73600;BME280;61877;48.246;9.220;2023-04-03T08:39:03;94719.44;;;4.66;61.38
73600;BME280;61877;48.246;9.220;2023-04-03T08:41:32;94715.22;;;4.83;61.13
73600;BME280;61877;48.246;9.220;2023-04-03T08:44:03;94715.03;;;4.56;60.61
73600;BME280;61877;48.246;9.220;2023-04-03T08:46:42;94718.03;;;4.50;61.87
73600;BME280;61877;48.246;9.220;2023-04-03T08:49:18;94718.19;;;4.58;62.11
73600;BME280;61877;48.246;9.220;2023-04-03T08:51:50;94723.94;;;4.89;62.75
73600;BME280;61877;48.246;9.220;2023-04-03T08:54:23;94722.22;;;5.16;60.05
73600;BME280;61877;48.246;9.220;2023-04-03T08:56:49;94726.66;;;5.02;59.77
73600;BME280;61877;48.246;9.220;2023-04-03T08:59:19;94732.91;;;4.93;61.63
73600;BME280;61877;48.246;9.220;2023-04-03T09:01:49;94730.34;;;5.25;60.28
73600;BME280;61877;48.246;9.220;2023-04-03T09:04:16;94731.47;;;5.56;59.78
73600;BME280;61877;48.246;9.220;2023-04-03T09:06:43;94730.88;;;5.59;60.14
73600;BME280;61877;48.246;9.220;2023-04-03T09:09:15;94729.19;;;5.31;60.44
73600;BME280;61877;48.246;9.220;2023-04-03T09:11:51;94731.84;;;5.12;60.53
73600;BME280;61877;48.246;9.220;2023-04-03T09:14:26;94734.28;;;4.90;60.07
73600;BME280;61877;48.246;9.220;2023-04-03T09:16:56;94737.47;;;4.69;60.15
73600;BME280;61877;48.246;9.220;2023-04-03T09:19:37;94737.13;;;4.52;60.54
73600;BME280;61877;48.246;9.220;2023-04-03T09:22:13;94735.44;;;5.03;61.58
73600;BME280;61877;48.246;9.220;2023-04-03T09:24:43;94738.56;;;4.86;59.02
73600;BME280;61877;48.246;9.220;2023-04-03T09:27:11;94739.25;;;5.15;58.06
73600;BME280;61877;48.246;9.220;2023-04-03T09:29:39;94732.34;;;5.33;58.82
73600;BME280;61877;48.246;9.220;2023-04-03T09:32:19;94738.69;;;5.18;57.80
73600;BME280;61877;48.246;9.220;2023-04-03T09:34:47;94734.50;;;4.94;58.67
73600;BME280;61877;48.246;9.220;2023-04-03T09:37:34;94738.94;;;4.56;59.50
73600;BME280;61877;48.246;9.220;2023-04-03T09:40:01;94727.81;;;4.31;59.57
73600;BME280;61877;48.246;9.220;2023-04-03T09:42:27;94729.06;;;4.62;59.81
73600;BME280;61877;48.246;9.220;2023-04-03T09:44:56;94732.84;;;4.56;59.14
73600;BME280;61877;48.246;9.220;2023-04-03T09:47:25;94740.97;;;4.17;58.58
73600;BME280;61877;48.246;9.220;2023-04-03T09:50:10;94738.16;;;4.56;59.43
73600;BME280;61877;48.246;9.220;2023-04-03T09:52:44;94738.09;;;5.03;57.16
73600;BME280;61877;48.246;9.220;2023-04-03T09:55:15;94729.31;;;5.58;55.94
73600;BME280;61877;48.246;9.220;2023-04-03T09:57:41;94720.59;;;6.17;55.72
73600;BME280;61877;48.246;9.220;2023-04-03T10:00:20;94732.78;;;6.36;53.68
73600;BME280;61877;48.246;9.220;2023-04-03T10:02:50;94733.59;;;5.91;53.15
73600;BME280;61877;48.246;9.220;2023-04-03T10:05:29;94725.66;;;6.18;53.37
73600;BME280;61877;48.246;9.220;2023-04-03T10:08:22;94719.25;;;6.33;53.29
73600;BME280;61877;48.246;9.220;2023-04-03T10:11:06;94729.34;;;5.72;51.68
73600;BME280;61877;48.246;9.220;2023-04-03T10:13:32;94717.41;;;5.88;55.04
73600;BME280;61877;48.246;9.220;2023-04-03T10:16:01;94723.19;;;6.22;55.00
73600;BME280;61877;48.246;9.220;2023-04-03T10:18:32;94717.88;;;6.35;54.77
73600;BME280;61877;48.246;9.220;2023-04-03T10:21:06;94721.81;;;6.24;52.68
73600;BME280;61877;48.246;9.220;2023-04-03T10:23:42;94713.72;;;5.84;54.70
73600;BME280;61877;48.246;9.220;2023-04-03T10:26:17;94709.53;;;5.96;52.77
73600;BME280;61877;48.246;9.220;2023-04-03T10:28:55;94719.25;;;5.87;53.95
73600;BME280;61877;48.246;9.220;2023-04-03T10:31:25;94709.75;;;6.27;54.77
73600;BME280;61877;48.246;9.220;2023-04-03T10:34:00;94705.53;;;5.80;51.64
73600;BME280;61877;48.246;9.220;2023-04-03T10:36:36;94708.97;;;6.67;52.18
73600;BME280;61877;48.246;9.220;2023-04-03T10:39:12;94702.09;;;6.52;49.56
73600;BME280;61877;48.246;9.220;2023-04-03T10:41:49;94705.41;;;6.85;50.68
73600;BME280;61877;48.246;9.220;2023-04-03T10:44:25;94708.94;;;7.08;49.15
73600;BME280;61877;48.246;9.220;2023-04-03T10:47:02;94698.72;;;6.74;50.18
73600;BME280;61877;48.246;9.220;2023-04-03T10:49:39;94710.53;;;6.82;50.77
73600;BME280;61877;48.246;9.220;2023-04-03T10:52:13;94702.28;;;7.19;51.42
73600;BME280;61877;48.246;9.220;2023-04-03T10:54:41;94703.16;;;7.28;50.43
73600;BME280;61877;48.246;9.220;2023-04-03T10:57:11;94699.78;;;7.36;50.38
73600;BME280;61877;48.246;9.220;2023-04-03T10:59:38;94703.50;;;7.35;48.24
73600;BME280;61877;48.246;9.220;2023-04-03T11:02:13;94700.91;;;7.43;50.30
73600;BME280;61877;48.246;9.220;2023-04-03T11:04:42;94698.19;;;7.35;50.60
73600;BME280;61877;48.246;9.220;2023-04-03T11:07:16;94693.06;;;7.25;49.22
73600;BME280;61877;48.246;9.220;2023-04-03T11:09:46;94693.97;;;7.56;48.78
73600;BME280;61877;48.246;9.220;2023-04-03T11:12:17;94692.59;;;6.74;47.96
73600;BME280;61877;48.246;9.220;2023-04-03T11:14:46;94695.97;;;6.66;50.45
73600;BME280;61877;48.246;9.220;2023-04-03T11:17:21;94709.78;;;6.54;52.76
73600;BME280;61877;48.246;9.220;2023-04-03T11:19:54;94695.97;;;6.25;51.91
73600;BME280;61877;48.246;9.220;2023-04-03T11:22:24;94693.38;;;6.06;51.99
73600;BME280;61877;48.246;9.220;2023-04-03T11:24:57;94698.69;;;6.06;51.41
73600;BME280;61877;48.246;9.220;2023-04-03T11:27:27;94696.13;;;6.01;51.17
73600;BME280;61877;48.246;9.220;2023-04-03T11:29:56;94686.28;;;6.15;52.64
73600;BME280;61877;48.246;9.220;2023-04-03T11:35:24;94692.09;;;6.72;49.77
73600;BME280;61877;48.246;9.220;2023-04-03T11:37:53;94685.59;;;7.13;49.08
73600;BME280;61877;48.246;9.220;2023-04-03T11:40:22;94684.28;;;6.89;49.15
73600;BME280;61877;48.246;9.220;2023-04-03T11:42:52;94695.03;;;6.84;48.83
73600;BME280;61877;48.246;9.220;2023-04-03T11:45:34;94699.88;;;6.95;48.41
73600;BME280;61877;48.246;9.220;2023-04-03T11:48:01;94691.16;;;7.39;49.22
73600;BME280;61877;48.246;9.220;2023-04-03T11:50:32;94687.91;;;7.28;47.42
73600;BME280;61877;48.246;9.220;2023-04-03T11:53:26;94685.75;;;6.95;49.84
73600;BME280;61877;48.246;9.220;2023-04-03T11:56:03;94684.56;;;6.87;49.81
73600;BME280;61877;48.246;9.220;2023-04-03T11:58:32;94693.69;;;6.45;52.11
73600;BME280;61877;48.246;9.220;2023-04-03T12:01:04;94701.28;;;6.11;52.08
73600;BME280;61877;48.246;9.220;2023-04-03T12:09:53;94706.50;;;4.78;53.83
73600;BME280;61877;48.246;9.220;2023-04-03T12:12:30;94696.78;;;5.10;55.68
73600;BME280;61877;48.246;9.220;2023-04-03T12:15:12;94704.09;;;5.37;56.29
73600;BME280;61877;48.246;9.220;2023-04-03T12:17:43;94691.56;;;5.38;52.56
73600;BME280;61877;48.246;9.220;2023-04-03T12:23:08;94683.81;;;6.32;53.21
73600;BME280;61877;48.246;9.220;2023-04-03T12:25:48;94684.59;;;6.60;52.15
73600;BME280;61877;48.246;9.220;2023-04-03T12:28:14;94675.81;;;6.73;51.53
73600;BME280;61877;48.246;9.220;2023-04-03T12:30:42;94673.63;;;6.75;50.18
73600;BME280;61877;48.246;9.220;2023-04-03T12:33:23;94684.78;;;6.77;49.71
73600;BME280;61877;48.246;9.220;2023-04-03T12:36:02;94676.44;;;7.06;50.05
73600;BME280;61877;48.246;9.220;2023-04-03T12:39:00;94670.19;;;6.75;49.59
73600;BME280;61877;48.246;9.220;2023-04-03T12:41:37;94675.66;;;6.92;48.27
73600;BME280;61877;48.246;9.220;2023-04-03T12:46:53;94665.91;;;6.87;49.62
73600;BME280;61877;48.246;9.220;2023-04-03T12:49:30;94661.22;;;6.43;48.88
73600;BME280;61877;48.246;9.220;2023-04-03T12:51:58;94660.75;;;6.91;50.13
73600;BME280;61877;48.246;9.220;2023-04-03T12:54:29;94663.25;;;6.87;48.74
73600;BME280;61877;48.246;9.220;2023-04-03T12:57:09;94656.47;;;7.03;48.88
73600;BME280;61877;48.246;9.220;2023-04-03T12:59:35;94662.28;;;6.70;47.99
73600;BME280;61877;48.246;9.220;2023-04-03T13:02:02;94663.72;;;6.40;50.01
73600;BME280;61877;48.246;9.220;2023-04-03T13:04:30;94661.22;;;6.57;52.06
73600;BME280;61877;48.246;9.220;2023-04-03T13:06:56;94657.63;;;6.75;48.49
73600;BME280;61877;48.246;9.220;2023-04-03T13:09:24;94655.44;;;6.91;50.90
73600;BME280;61877;48.246;9.220;2023-04-03T13:11:53;94665.91;;;7.23;50.21
73600;BME280;61877;48.246;9.220;2023-04-03T13:14:23;94663.25;;;7.23;46.31
73600;BME280;61877;48.246;9.220;2023-04-03T13:16:57;94663.50;;;7.79;47.39
73600;BME280;61877;48.246;9.220;2023-04-03T13:19:26;94667.84;;;7.97;44.74
73600;BME280;61877;48.246;9.220;2023-04-03T13:21:57;94653.28;;;8.42;43.56
73600;BME280;61877;48.246;9.220;2023-04-03T13:24:24;94655.16;;;8.11;42.42
73600;BME280;61877;48.246;9.220;2023-04-03T13:26:51;94653.84;;;8.00;41.28
73600;BME280;61877;48.246;9.220;2023-04-03T13:29:22;94663.47;;;7.13;46.71
73600;BME280;61877;48.246;9.220;2023-04-03T13:31:52;94653.81;;;7.61;42.69
73600;BME280;61877;48.246;9.220;2023-04-03T13:34:19;94648.09;;;7.54;44.13